Terminal Aerodrome Forecast
Issued by NWS Charleston, WV

Home | Current Version | Previous Version | Text Only | Print | Product List | Glossary On
Versions: 1 2 3 4 5 6 7 8 9 10 11 12 13 14 15 16 17 18 19 20 21 22 23 24 25 26 27 28 29 30
571
FTUS41 KRLX 251742 AAB
TAFCRW
TAF AMD
KCRW 251742Z 2518/2618 26009G17KT P6SM BKN035 BKN150
      TEMPO 2518/2520 BKN025
     FM252300 26007KT P6SM SCT200
     FM260000 26003KT P6SM SCT200
     FM261000 00000KT 6SM BR FEW001 BKN150
     FM261200 00000KT P6SM SCT120 BKN200=

USA.gov is the U.S. government's official web portal to all federal, state and local government web resources and services.